< < Back
Terminal Aerodrome Forecast


Current Version              Previous Versions:   1  2  3  4  5  6  7  8  9  

Terminal Aerodrome Forecast

539
FTUS42 KCAE 312000 AAC
TAFCAE
TAF AMD
KCAE 312051Z 3121/0118 VRB05KT P6SM VCSH SCT050
      TEMPO 3121/3123 VRB20G35KT 4SM TSRA BR SCT015 BKN040CB OVC060
     FM312300 VRB04KT P6SM SCT100
     FM011100 VRB03KT 5SM BR SCT005
     FM011300 23005KT P6SM FEW050 SCT250=

Latest METAR

798
SAUS80 KWBC 010800 CCA
MTRCAE
METAR KCAE 010756Z 26004KT 10SM CLR 24/22 A3008 RMK AO2 SLP182
T02390217


USA.gov is the U.S. government's official web portal to all federal, state and local government web resources and services.